Time;durP1;ratioP1;P1;durP2;ratioP2;P2;SDS_P1;SDS_P2;PMS_P1;PMS_P2;Temp;Humidity;BMP_temperature;BMP_pressure;BME280_temperature;BME280_humidity;BME280_pressure;Samples;Min_cycle;Max_cycle;Signal;HPM_P1;HPM_P2
2023/06/23 00:01:45;;;;;;;;;;;;;;;30.50;37.40;94625.03;5059868;28;7366;-61
2023/06/23 00:04:11;;;;;;;;;;;;;;;30.46;36.31;94621.84;4948409;28;9061;-61
2023/06/23 00:06:38;;;;;;;;;;;;;;;30.49;36.45;94626.31;4934008;29;9240;-61
2023/06/23 00:09:17;;;;;;;;;;;;;;;30.47;36.58;94620.56;4949386;28;9077;-61
2023/06/23 00:12:07;;;;;;;;;;;;;;;30.45;36.88;94614.81;4934501;29;8359;-61
2023/06/23 00:14:49;;;;;;;;;;;;;;;30.47;36.77;94617.78;4947667;28;7230;-61
2023/06/23 00:17:28;;;;;;;;;;;;;;;30.48;36.24;94619.28;4937777;28;7054;-61
2023/06/23 00:20:24;;;;;;;;;;;;;;;30.47;37.14;94614.28;4937868;28;7509;-61
2023/06/23 00:22:59;;;;;;;;;;;;;;;30.47;37.15;94617.06;4900133;29;8670;-61
2023/06/23 00:25:41;;;;;;;;;;;;;;;30.45;37.14;94617.56;4899528;29;7260;-61
2023/06/23 00:28:18;;;;;;;;;;;;;;;30.46;37.03;94610.75;4911947;29;7125;-61
2023/06/23 00:31:19;;;;;;;;;;;;;;;30.45;36.53;94617.56;4916528;29;7251;-61
2023/06/23 00:33:56;;;;;;;;;;;;;;;30.44;36.50;94607.78;4898691;29;9340;-61
2023/06/23 00:36:43;;;;;;;;;;;;;;;30.42;37.22;94610.34;4912731;29;7188;-61
2023/06/23 00:39:23;;;;;;;;;;;;;;;30.42;36.54;94617.91;4909810;29;7196;-61
2023/06/23 00:41:50;;;;;;;;;;;;;;;30.44;37.15;94609.78;4978316;28;7227;-61
2023/06/23 00:45:13;;;;;;;;;;;;;;;30.43;36.05;94614.59;4974911;28;7145;-61
2023/06/23 00:47:52;;;;;;;;;;;;;;;30.38;36.28;94609.91;4919033;29;7412;-61
2023/06/23 00:50:20;;;;;;;;;;;;;;;30.38;36.80;94607.13;4918471;29;7308;-60
2023/06/23 00:53:06;;;;;;;;;;;;;;;30.37;37.05;94610.44;4911908;29;7713;-61
2023/06/23 00:55:37;;;;;;;;;;;;;;;30.37;36.88;94613.22;4915490;29;7037;-61
2023/06/23 00:58:13;;;;;;;;;;;;;;;30.37;36.60;94613.97;4911188;29;7249;-61
2023/06/23 01:00:50;;;;;;;;;;;;;;;30.38;36.90;94618.22;4974199;28;9490;-62
2023/06/23 01:03:24;;;;;;;;;;;;;;;30.35;37.05;94613.78;4955337;28;8737;-61
2023/06/23 01:05:52;;;;;;;;;;;;;;;30.39;36.75;94608.63;4973233;28;8841;-61
2023/06/23 01:08:42;;;;;;;;;;;;;;;30.37;37.09;94619.53;4973261;28;7045;-61
2023/06/23 01:11:21;;;;;;;;;;;;;;;30.39;36.47;94625.28;4973682;28;8715;-61
2023/06/23 01:17:56;;;;;;;;;;;;;;;30.33;37.41;94630.22;4972451;28;9100;-61
2023/06/23 01:21:01;;;;;;;;;;;;;;;30.34;37.58;94640.03;4927740;29;9027;-61
2023/06/23 01:24:21;;;;;;;;;;;;;;;30.35;36.35;94627.66;4934626;28;8668;-61
2023/06/23 01:27:25;;;;;;;;;;;;;;;30.36;37.13;94640.22;4953677;28;6867;-61
2023/06/23 01:30:05;;;;;;;;;;;;;;;30.34;36.56;94639.28;4942045;28;7149;-61
2023/06/23 01:32:52;;;;;;;;;;;;;;;30.35;37.48;94635.22;4932883;28;7110;-61
2023/06/23 01:36:11;;;;;;;;;;;;;;;30.34;36.83;94631.69;4954336;28;8709;-61
2023/06/23 01:39:12;;;;;;;;;;;;;;;30.34;37.49;94642.78;4914746;29;8975;-61
2023/06/23 01:42:03;;;;;;;;;;;;;;;30.34;37.04;94622.66;4919491;29;8734;-61
2023/06/23 01:44:46;;;;;;;;;;;;;;;30.33;36.77;94624.66;4918457;29;7438;-61
2023/06/23 01:47:19;;;;;;;;;;;;;;;30.30;37.64;94628.47;4930183;29;7162;-61
2023/06/23 01:50:22;;;;;;;;;;;;;;;30.31;36.63;94638.34;4933110;29;7139;-61
2023/06/23 01:53:05;;;;;;;;;;;;;;;30.30;36.63;94636.81;4885482;29;7146;-60
2023/06/23 01:56:09;;;;;;;;;;;;;;;30.32;37.51;94641.88;4881534;29;9028;-61
2023/06/23 01:58:50;;;;;;;;;;;;;;;30.31;37.05;94649.44;4868457;29;7923;-60
2023/06/23 02:01:52;;;;;;;;;;;;;;;30.31;36.84;94640.34;4871955;29;7370;-61
2023/06/23 02:04:19;;;;;;;;;;;;;;;30.30;37.32;94645.13;4885871;29;7389;-61
2023/06/23 02:07:13;;;;;;;;;;;;;;;30.29;37.39;94649.19;4885959;29;7285;-60
2023/06/23 02:09:47;;;;;;;;;;;;;;;30.30;37.52;94650.69;4884752;29;9036;-61
2023/06/23 02:12:45;;;;;;;;;;;;;;;30.30;37.67;94655.47;4884979;29;7291;-60
2023/06/23 02:15:25;;;;;;;;;;;;;;;30.30;37.44;94658.25;4860002;29;7822;-60
2023/06/23 02:17:54;;;;;;;;;;;;;;;30.29;36.98;94654.75;4843479;29;8943;-61
2023/06/23 02:20:23;;;;;;;;;;;;;;;30.28;37.12;94658.03;4838388;29;7634;-61
2023/06/23 02:22:52;;;;;;;;;;;;;;;30.28;37.24;94658.03;4834306;29;7579;-61
2023/06/23 02:25:21;;;;;;;;;;;;;;;30.28;37.48;94660.81;4838433;29;8697;-61
2023/06/23 02:27:50;;;;;;;;;;;;;;;30.29;37.21;94667.88;4852865;29;7204;-61
2023/06/23 02:30:18;;;;;;;;;;;;;;;30.30;36.97;94670.09;4856155;29;8465;-60
2023/06/23 02:32:47;;;;;;;;;;;;;;;30.28;36.80;94675.44;4853065;29;8727;-61
2023/06/23 02:35:28;;;;;;;;;;;;;;;30.28;36.83;94681.00;4925755;28;7328;-61
2023/06/23 02:38:24;;;;;;;;;;;;;;;30.30;36.68;94677.66;4936342;28;7219;-61
2023/06/23 02:40:53;;;;;;;;;;;;;;;30.27;37.82;94676.75;4968779;28;9456;-60
2023/06/23 02:43:50;;;;;;;;;;;;;;;30.27;37.28;94693.38;4953101;28;7058;-60
2023/06/23 02:46:22;;;;;;;;;;;;;;;30.25;37.03;94693.19;4964357;28;7350;-60
2023/06/23 02:49:01;;;;;;;;;;;;;;;30.27;37.31;94684.31;4947765;28;8670;-61
2023/06/23 02:51:31;;;;;;;;;;;;;;;30.27;36.73;94681.53;4983234;28;7047;-61
2023/06/23 02:54:17;;;;;;;;;;;;;;;30.25;37.74;94698.72;5021481;28;7364;-61
2023/06/23 02:57:12;;;;;;;;;;;;;;;30.24;37.63;94702.78;5063790;28;7002;-60
2023/06/23 03:00:05;;;;;;;;;;;;;;;30.24;37.02;94719.41;5043987;28;9049;-61
2023/06/23 03:02:45;;;;;;;;;;;;;;;30.24;36.79;94732.53;5029107;28;7114;-60
2023/06/23 03:05:13;;;;;;;;;;;;;;;30.21;37.59;94723.25;5023815;28;9511;-60
2023/06/23 03:08:05;;;;;;;;;;;;;;;30.23;37.19;94739.38;5030749;28;8062;-60
2023/06/23 03:11:02;;;;;;;;;;;;;;;30.23;37.64;94742.16;4969022;28;8926;-60
2023/06/23 03:13:28;;;;;;;;;;;;;;;30.23;37.75;94745.66;4878142;29;7022;-60
2023/06/23 03:16:08;;;;;;;;;;;;;;;30.22;37.63;94755.28;4878889;29;7277;-60
2023/06/23 03:18:46;;;;;;;;;;;;;;;30.20;37.43;94752.28;4879451;29;7481;-61
2023/06/23 03:21:24;;;;;;;;;;;;;;;30.22;37.28;94749.72;4874947;29;7025;-61
2023/06/23 03:24:14;;;;;;;;;;;;;;;30.20;37.46;94763.41;4879302;29;7189;-61
2023/06/23 03:26:57;;;;;;;;;;;;;;;30.21;37.32;94769.69;4880042;29;9084;-60
2023/06/23 03:29:32;;;;;;;;;;;;;;;30.21;37.98;94780.78;4895070;29;9298;-61
2023/06/23 03:32:24;;;;;;;;;;;;;;;30.17;37.89;94772.03;4892687;29;7185;-61
2023/06/23 03:35:13;;;;;;;;;;;;;;;30.17;37.45;94777.56;4878093;29;8317;-61
2023/06/23 03:37:59;;;;;;;;;;;;;;;30.19;37.62;94791.69;4873669;29;7332;-60
2023/06/23 03:41:02;;;;;;;;;;;;;;;30.19;36.75;94800.00;4877297;29;8871;-61
2023/06/23 03:43:57;;;;;;;;;;;;;;;30.18;37.00;94810.34;4805191;29;8761;-60
2023/06/23 03:46:29;;;;;;;;;;;;;;;30.16;36.86;94803.84;4806873;29;7219;-61
2023/06/23 03:49:01;;;;;;;;;;;;;;;30.16;37.91;94817.72;4899506;28;7502;-61
2023/06/23 03:51:32;;;;;;;;;;;;;;;30.14;37.49;94821.03;4976079;28;7416;-61
2023/06/23 03:54:02;;;;;;;;;;;;;;;30.14;37.97;94832.13;4952178;28;6987;-61
2023/06/23 03:56:37;;;;;;;;;;;;;;;30.13;37.69;94835.41;4981542;28;7036;-61
2023/06/23 03:59:10;;;;;;;;;;;;;;;30.10;37.39;94828.88;4965784;28;9252;-61
2023/06/23 04:01:42;;;;;;;;;;;;;;;30.12;37.03;94836.69;4948074;28;7277;-61
2023/06/23 04:04:21;;;;;;;;;;;;;;;30.12;36.81;94839.47;4959482;28;7258;-61
2023/06/23 04:06:51;;;;;;;;;;;;;;;30.10;38.00;94837.22;4959580;28;9469;-61
2023/06/23 04:09:21;;;;;;;;;;;;;;;30.12;37.05;94842.25;4949028;28;7042;-61
2023/06/23 04:11:53;;;;;;;;;;;;;;;30.11;37.27;94847.03;4948524;28;6995;-61
2023/06/23 04:14:22;;;;;;;;;;;;;;;30.10;37.32;94847.56;4964885;28;8566;-61
2023/06/23 04:16:55;;;;;;;;;;;;;;;30.11;37.74;94849.81;4959022;28;7190;-61
2023/06/23 04:19:27;;;;;;;;;;;;;;;30.10;37.96;94848.31;5001890;28;6978;-61
2023/06/23 04:22:00;;;;;;;;;;;;;;;30.11;37.68;94854.59;5020021;28;6997;-61
2023/06/23 04:24:33;;;;;;;;;;;;;;;30.08;36.97;94855.69;5020048;28;8743;-60
2023/06/23 04:27:04;;;;;;;;;;;;;;;30.08;37.78;94870.28;5026227;28;7106;-61
2023/06/23 04:29:36;;;;;;;;;;;;;;;30.09;37.26;94863.47;5019173;28;7049;-61
2023/06/23 04:32:02;;;;;;;;;;;;;;;30.06;36.91;94861.03;5024051;28;9520;-61
2023/06/23 04:34:29;;;;;;;;;;;;;;;30.11;37.05;94868.47;5041397;28;9059;-61
2023/06/23 04:37:10;;;;;;;;;;;;;;;30.08;37.79;94869.56;5041577;28;8841;-61
2023/06/23 04:39:48;;;;;;;;;;;;;;;30.08;36.83;94884.16;5018006;28;7430;-61
2023/06/23 04:42:24;;;;;;;;;;;;;;;30.04;37.82;94875.41;5025646;28;7250;-61
2023/06/23 04:44:55;;;;;;;;;;;;;;;30.05;37.51;94893.56;5031126;28;7119;-60
2023/06/23 04:47:28;;;;;;;;;;;;;;;30.06;36.93;94891.53;5019651;28;6990;-61
2023/06/23 04:50:03;;;;;;;;;;;;;;;30.08;37.32;94895.25;5050828;28;7041;-60
2023/06/23 04:52:34;;;;;;;;;;;;;;;30.06;36.87;94900.59;5014424;28;7807;-61
2023/06/23 04:55:06;;;;;;;;;;;;;;;30.05;37.59;94904.66;5013871;28;7038;-61
2023/06/23 04:57:36;;;;;;;;;;;;;;;30.05;37.32;94907.44;5016690;28;7928;-62
2023/06/23 05:00:11;;;;;;;;;;;;;;;30.04;37.97;94910.72;5024200;28;7201;-61
2023/06/23 05:02:42;;;;;;;;;;;;;;;30.01;37.75;94911.78;5040489;28;7430;-61
2023/06/23 05:05:13;;;;;;;;;;;;;;;30.02;37.52;94908.47;5028758;28;7224;-60
2023/06/23 05:07:42;;;;;;;;;;;;;;;30.05;37.36;94918.53;5060013;28;7258;-61
2023/06/23 05:10:09;;;;;;;;;;;;;;;30.07;38.55;94904.13;5036866;28;9128;-61
2023/06/23 05:12:46;;;;;;;;;;;;;;;30.07;37.87;94909.66;5028126;28;7318;-61
2023/06/23 05:15:17;;;;;;;;;;;;;;;30.06;38.09;94911.69;5044874;28;7249;-61
2023/06/23 05:17:49;;;;;;;;;;;;;;;30.05;37.32;94918.53;5026798;28;9493;-61
2023/06/23 05:20:20;;;;;;;;;;;;;;;30.07;37.66;94924.28;5059280;28;7268;-61
2023/06/23 05:22:50;;;;;;;;;;;;;;;30.09;37.71;94913.41;5027641;28;7033;-61
2023/06/23 05:25:19;;;;;;;;;;;;;;;30.10;38.21;94920.44;5024578;28;7060;-61
2023/06/23 05:27:57;;;;;;;;;;;;;;;30.09;37.55;94918.97;5042004;28;7033;-61
2023/06/23 05:30:25;;;;;;;;;;;;;;;30.07;38.06;94924.28;5019170;28;7184;-61
2023/06/23 05:32:56;;;;;;;;;;;;;;;30.07;37.56;94918.75;5021317;28;7402;-61
2023/06/23 05:35:31;;;;;;;;;;;;;;;30.07;37.47;94927.06;5039835;28;7426;-61
2023/06/23 05:38:04;;;;;;;;;;;;;;;30.08;37.92;94923.00;5019324;28;7383;-61
2023/06/23 05:40:35;;;;;;;;;;;;;;;30.06;38.31;94925.56;5025021;28;7202;-61
2023/06/23 05:43:04;;;;;;;;;;;;;;;30.07;37.82;94926.31;5019858;28;7309;-62
2023/06/23 05:45:32;;;;;;;;;;;;;;;30.05;37.92;94926.09;5055886;28;8848;-62
2023/06/23 05:48:19;;;;;;;;;;;;;;;30.03;37.96;94923.84;5034266;28;7222;-61
2023/06/23 05:50:48;;;;;;;;;;;;;;;30.03;38.19;94932.16;5027842;28;7091;-61
2023/06/23 05:53:18;;;;;;;;;;;;;;;30.03;38.41;94921.06;5021425;28;9366;-61
2023/06/23 05:55:59;;;;;;;;;;;;;;;30.05;38.24;94928.84;5043841;28;7123;-61
2023/06/23 05:58:34;;;;;;;;;;;;;;;30.02;37.88;94924.34;5022141;28;9103;-61
2023/06/23 06:01:07;;;;;;;;;;;;;;;30.03;37.93;94926.63;5043064;28;7218;-60
2023/06/23 06:03:39;;;;;;;;;;;;;;;30.03;37.49;94923.84;5060852;28;8973;-61
2023/06/23 06:06:10;;;;;;;;;;;;;;;30.03;37.37;94923.84;5021391;28;7187;-60
2023/06/23 06:08:42;;;;;;;;;;;;;;;30.01;37.37;94926.41;5043519;28;7041;-61
2023/06/23 06:11:11;;;;;;;;;;;;;;;30.04;38.29;94928.09;5042509;28;9388;-61
2023/06/23 06:13:46;;;;;;;;;;;;;;;30.04;37.66;94927.34;5022672;28;8923;-61
2023/06/23 06:16:14;;;;;;;;;;;;;;;30.05;38.09;94929.63;5045361;28;9080;-61
2023/06/23 06:18:44;;;;;;;;;;;;;;;30.01;37.27;94915.31;5043266;28;6982;-61
2023/06/23 06:21:22;;;;;;;;;;;;;;;30.04;37.12;94922.56;5027173;28;7232;-61
2023/06/23 06:23:52;;;;;;;;;;;;;;;30.02;37.66;94924.34;5042752;28;8702;-60
2023/06/23 06:26:24;;;;;;;;;;;;;;;29.98;38.06;94921.91;5028453;28;7399;-61
2023/06/23 06:28:57;;;;;;;;;;;;;;;30.00;38.02;94930.44;5023311;28;7259;-61
2023/06/23 06:31:25;;;;;;;;;;;;;;;30.03;38.25;94937.72;5019288;28;7039;-61
2023/06/23 06:33:54;;;;;;;;;;;;;;;30.00;38.44;94935.22;5059990;28;6860;-61
2023/06/23 06:36:26;;;;;;;;;;;;;;;30.00;39.64;94944.31;5036751;28;7017;-61
2023/06/23 06:38:56;;;;;;;;;;;;;;;30.01;40.66;94934.72;5028825;28;9024;-60
2023/06/23 06:41:24;;;;;;;;;;;;;;;30.02;39.53;94941.75;5061400;28;6959;-61
2023/06/23 06:43:56;;;;;;;;;;;;;;;29.98;40.06;94938.53;5028311;28;7241;-61
2023/06/23 06:46:22;;;;;;;;;;;;;;;30.01;40.48;94939.53;5030156;28;8958;-61
2023/06/23 06:48:50;;;;;;;;;;;;;;;29.99;40.74;94937.28;5034550;28;6994;-61
2023/06/23 06:51:18;;;;;;;;;;;;;;;30.00;40.28;94936.00;5043674;28;9097;-61
2023/06/23 06:53:52;;;;;;;;;;;;;;;30.02;41.02;94935.44;5028580;28;9040;-61
2023/06/23 06:56:26;;;;;;;;;;;;;;;30.02;40.80;94930.66;5038605;28;7015;-60
2023/06/23 06:58:52;;;;;;;;;;;;;;;30.03;40.87;94932.16;5047409;28;7489;-61
2023/06/23 07:01:19;;;;;;;;;;;;;;;30.02;40.33;94935.44;5063919;28;7289;-60
2023/06/23 07:03:55;;;;;;;;;;;;;;;29.99;40.07;94942.81;5048077;28;7054;-60
2023/06/23 07:06:21;;;;;;;;;;;;;;;29.99;40.13;94942.06;5032736;28;9033;-60
2023/06/23 07:08:49;;;;;;;;;;;;;;;30.00;40.12;94935.22;5060328;28;7298;-60
2023/06/23 07:11:20;;;;;;;;;;;;;;;30.03;39.72;94936.97;5030124;28;7316;-60
2023/06/23 07:13:54;;;;;;;;;;;;;;;29.99;39.69;94937.28;5024097;28;8742;-60
2023/06/23 07:16:33;;;;;;;;;;;;;;;29.99;39.61;94942.81;5062316;28;7102;-60
2023/06/23 07:19:40;;;;;;;;;;;;;;;29.99;39.58;94942.81;5029001;28;7000;-60
2023/06/23 07:22:07;;;;;;;;;;;;;;;30.00;39.61;94944.31;5030138;28;9213;-61
2023/06/23 07:24:33;;;;;;;;;;;;;;;30.00;39.00;94946.34;5047068;28;7169;-61
2023/06/23 07:27:08;;;;;;;;;;;;;;;29.98;39.48;94943.34;5027367;28;7631;-61
2023/06/23 07:29:41;;;;;;;;;;;;;;;29.97;39.28;94942.59;5022411;28;7599;-61
2023/06/23 07:32:20;;;;;;;;;;;;;;;29.96;38.72;94949.41;5031189;28;8746;-61
2023/06/23 07:34:48;;;;;;;;;;;;;;;29.98;38.79;94946.88;5029802;28;7054;-60
2023/06/23 07:37:14;;;;;;;;;;;;;;;29.97;38.95;94950.91;5045994;28;8013;-60
2023/06/23 07:39:53;;;;;;;;;;;;;;;29.98;39.12;94948.88;5028811;28;7568;-60
2023/06/23 07:42:27;;;;;;;;;;;;;;;29.98;38.73;94957.97;5024272;28;7259;-60
2023/06/23 07:45:06;;;;;;;;;;;;;;;29.98;39.61;94963.50;5028509;28;8985;-60
2023/06/23 07:47:45;;;;;;;;;;;;;;;30.00;38.77;94960.19;5057584;28;7609;-60
2023/06/23 07:50:21;;;;;;;;;;;;;;;29.97;39.12;94964.03;5060819;28;7383;-60
2023/06/23 07:53:11;;;;;;;;;;;;;;;29.97;39.40;94964.03;5040836;28;7025;-60
2023/06/23 07:55:48;;;;;;;;;;;;;;;29.95;38.40;94959.00;5029609;28;7222;-60
2023/06/23 07:58:19;;;;;;;;;;;;;;;29.95;39.19;94963.81;5026137;28;7147;-61
2023/06/23 08:01:00;;;;;;;;;;;;;;;29.95;39.13;94959.00;5028921;28;7196;-61
2023/06/23 08:03:28;;;;;;;;;;;;;;;29.96;38.32;94965.31;5023937;28;7735;-61
2023/06/23 08:05:59;;;;;;;;;;;;;;;29.94;38.25;94957.53;5061156;28;8408;-60
2023/06/23 08:08:25;;;;;;;;;;;;;;;29.94;38.97;94957.53;5028035;28;7292;-60
2023/06/23 08:10:54;;;;;;;;;;;;;;;29.97;38.15;94952.94;5045333;28;7262;-60
2023/06/23 08:13:34;;;;;;;;;;;;;;;29.97;38.94;94964.78;5060663;28;9085;-60
2023/06/23 08:16:01;;;;;;;;;;;;;;;29.93;38.04;94960.81;5044781;28;7022;-60
2023/06/23 08:18:34;;;;;;;;;;;;;;;29.96;39.23;94968.84;5043903;28;7051;-60
2023/06/23 08:21:10;;;;;;;;;;;;;;;29.94;38.12;94965.09;5044794;28;7066;-60
2023/06/23 08:24:05;;;;;;;;;;;;;;;29.99;38.45;94969.81;5026923;28;7224;-59
2023/06/23 08:27:25;;;;;;;;;;;;;;;29.98;39.04;94973.84;4971286;28;7604;-60
2023/06/23 08:30:31;;;;;;;;;;;;;;;29.98;38.72;94982.16;4966333;28;8864;-60
2023/06/23 08:32:58;;;;;;;;;;;;;;;29.98;38.77;94980.16;4949367;28;7565;-60
2023/06/23 08:35:25;;;;;;;;;;;;;;;30.00;38.29;94988.69;4953657;28;7263;-60
2023/06/23 08:38:22;;;;;;;;;;;;;;;30.00;37.83;94994.25;4955909;28;8832;-59
2023/06/23 08:40:59;;;;;;;;;;;;;;;29.98;38.73;94993.25;4883219;29;9308;-60
2023/06/23 08:43:35;;;;;;;;;;;;;;;29.98;38.04;94985.69;4912625;29;7041;-60
2023/06/23 08:46:10;;;;;;;;;;;;;;;29.97;38.26;94989.00;4898432;29;7437;-60
2023/06/23 08:49:15;;;;;;;;;;;;;;;29.98;37.77;94988.47;4898180;29;7314;-60
2023/06/23 08:51:53;;;;;;;;;;;;;;;29.99;38.44;94992.75;4897370;29;8264;-60
2023/06/23 08:54:40;;;;;;;;;;;;;;;30.01;38.64;94995.75;4912858;29;8911;-60
2023/06/23 08:57:19;;;;;;;;;;;;;;;29.98;38.51;94996.03;4897237;29;9155;-60
2023/06/23 09:00:14;;;;;;;;;;;;;;;29.97;38.87;95000.84;4880485;29;9574;-60
2023/06/23 09:02:59;;;;;;;;;;;;;;;30.00;38.77;95008.13;4888897;29;7998;-60
2023/06/23 09:05:26;;;;;;;;;;;;;;;29.98;37.85;95001.59;4941768;28;7226;-60
2023/06/23 09:07:59;;;;;;;;;;;;;;;29.99;38.28;95003.09;4943523;28;8452;-60
2023/06/23 09:11:00;;;;;;;;;;;;;;;29.98;38.82;95007.88;4963936;28;9481;-59
2023/06/23 09:13:45;;;;;;;;;;;;;;;29.98;38.37;95007.13;4946622;28;7038;-60
2023/06/23 09:16:29;;;;;;;;;;;;;;;30.00;37.77;95013.66;4949708;28;7078;-60
2023/06/23 09:19:06;;;;;;;;;;;;;;;29.97;38.16;95006.38;5027369;28;7285;-60
2023/06/23 09:21:41;;;;;;;;;;;;;;;29.97;38.16;95011.19;5009714;28;8976;-60
2023/06/23 09:24:08;;;;;;;;;;;;;;;29.98;37.85;94998.81;5010235;28;7228;-61
2023/06/23 09:26:58;;;;;;;;;;;;;;;29.99;37.73;95014.19;5011746;28;7041;-60
2023/06/23 09:30:08;;;;;;;;;;;;;;;30.02;38.72;95010.34;4993586;28;7686;-60
2023/06/23 09:32:35;;;;;;;;;;;;;;;30.02;38.51;95010.34;5010893;28;9133;-60
2023/06/23 09:35:04;;;;;;;;;;;;;;;30.03;38.40;95009.09;5010411;28;7260;-60
2023/06/23 09:37:36;;;;;;;;;;;;;;;30.03;38.05;95015.41;4983781;28;9424;-60
2023/06/23 09:40:04;;;;;;;;;;;;;;;30.04;37.33;95016.13;5054961;28;9054;-59
2023/06/23 09:42:42;;;;;;;;;;;;;;;30.04;37.78;95016.13;5040087;28;7277;-60
2023/06/23 09:45:25;;;;;;;;;;;;;;;30.03;37.76;95020.94;5025773;28;9257;-60
2023/06/23 09:47:59;;;;;;;;;;;;;;;30.02;37.68;95024.97;5045874;28;7039;-60
2023/06/23 09:50:30;;;;;;;;;;;;;;;30.03;38.25;95014.63;5024132;28;9403;-60
2023/06/23 09:53:04;;;;;;;;;;;;;;;30.03;37.58;95025.72;5031650;28;7052;-60
2023/06/23 09:55:36;;;;;;;;;;;;;;;30.04;37.89;95018.91;5030279;28;7313;-60
2023/06/23 09:58:08;;;;;;;;;;;;;;;30.06;37.85;95019.88;5022770;28;7884;-60
2023/06/23 10:00:37;;;;;;;;;;;;;;;30.06;37.67;95027.47;5021373;28;8785;-60
2023/06/23 10:03:04;;;;;;;;;;;;;;;30.04;38.01;95016.13;5043200;28;7498;-61
2023/06/23 10:05:35;;;;;;;;;;;;;;;30.07;38.33;95020.63;5042393;28;7231;-60
2023/06/23 10:08:10;;;;;;;;;;;;;;;30.08;37.71;95016.59;5026121;28;7576;-60
2023/06/23 10:10:44;;;;;;;;;;;;;;;30.09;38.21;95023.63;5020269;28;8940;-60
2023/06/23 10:13:17;;;;;;;;;;;;;;;30.08;38.27;95028.41;5022335;28;7569;-61
2023/06/23 10:15:44;;;;;;;;;;;;;;;30.09;37.43;95026.41;5022752;28;7355;-61
2023/06/23 10:18:13;;;;;;;;;;;;;;;30.09;38.47;95024.38;5058240;28;8520;-61
2023/06/23 10:20:39;;;;;;;;;;;;;;;30.08;37.98;95017.31;5019528;28;7258;-60
2023/06/23 10:23:06;;;;;;;;;;;;;;;30.07;37.70;95023.41;5028729;28;8727;-60
2023/06/23 10:25:37;;;;;;;;;;;;;;;30.10;37.70;95025.13;5044825;28;7029;-60
2023/06/23 10:28:08;;;;;;;;;;;;;;;30.09;38.04;95027.16;5020353;28;7285;-60
2023/06/23 10:30:42;;;;;;;;;;;;;;;30.09;37.26;95026.41;5021993;28;9478;-60
2023/06/23 10:33:19;;;;;;;;;;;;;;;30.09;38.16;95013.28;5048898;28;7036;-60
2023/06/23 10:36:06;;;;;;;;;;;;;;;30.08;38.13;95020.09;5059238;28;7299;-60
2023/06/23 10:38:46;;;;;;;;;;;;;;;30.09;38.04;95021.59;5063300;28;9098;-60
2023/06/23 10:41:19;;;;;;;;;;;;;;;30.11;37.89;95030.16;5023013;28;7038;-60
2023/06/23 10:43:51;;;;;;;;;;;;;;;30.08;37.68;95033.25;5026476;28;9217;-60
2023/06/23 10:46:20;;;;;;;;;;;;;;;30.08;38.05;95027.69;5020366;28;7392;-59
2023/06/23 10:49:04;;;;;;;;;;;;;;;30.10;38.21;95025.88;5028177;28;7127;-60
2023/06/23 10:51:47;;;;;;;;;;;;;;;30.12;37.76;95023.34;5029460;28;7016;-60
2023/06/23 10:54:40;;;;;;;;;;;;;;;30.11;37.30;95019.06;5030888;28;8873;-60
2023/06/23 10:57:11;;;;;;;;;;;;;;;30.11;37.58;95021.06;5031947;28;9283;-60
2023/06/23 11:00:16;;;;;;;;;;;;;;;30.11;37.93;95016.28;5031875;28;7035;-60
2023/06/23 11:02:52;;;;;;;;;;;;;;;30.10;37.21;95016.81;5044069;28;9092;-60
2023/06/23 11:05:29;;;;;;;;;;;;;;;30.11;37.14;95004.44;5042681;28;9815;-61
2023/06/23 11:08:08;;;;;;;;;;;;;;;30.11;37.60;95005.19;5048497;28;7477;-60
2023/06/23 11:11:21;;;;;;;;;;;;;;;30.14;37.02;95006.91;5026328;28;9081;-60
2023/06/23 11:13:58;;;;;;;;;;;;;;;30.12;37.74;95006.69;5010311;28;9049;-60
2023/06/23 11:17:00;;;;;;;;;;;;;;;30.13;37.66;94997.09;5004440;28;6973;-60
2023/06/23 11:19:28;;;;;;;;;;;;;;;30.14;37.21;94995.81;5022379;28;7214;-60
2023/06/23 11:22:21;;;;;;;;;;;;;;;30.14;37.66;94997.84;5010191;28;9056;-60
2023/06/23 11:25:21;;;;;;;;;;;;;;;30.13;38.15;95001.88;5009645;28;7267;-60
2023/06/23 11:28:28;;;;;;;;;;;;;;;30.15;37.54;94997.31;5008552;28;7028;-61
2023/06/23 11:31:20;;;;;;;;;;;;;;;30.13;37.83;94994.31;4972064;28;7047;-60
2023/06/23 11:33:55;;;;;;;;;;;;;;;30.14;37.61;94998.59;4987014;28;7198;-60
2023/06/23 11:36:25;;;;;;;;;;;;;;;30.12;36.42;94989.28;4971443;28;7594;-60
2023/06/23 11:39:11;;;;;;;;;;;;;;;30.15;37.38;94988.22;4971506;28;9015;-60
2023/06/23 11:41:39;;;;;;;;;;;;;;;30.14;36.49;94993.03;4975887;28;7134;-60
2023/06/23 11:44:11;;;;;;;;;;;;;;;30.14;37.43;94984.72;4968935;28;7504;-61
2023/06/23 11:46:53;;;;;;;;;;;;;;;30.16;37.56;94990.50;4980396;28;9153;-61
2023/06/23 11:49:23;;;;;;;;;;;;;;;30.20;37.07;94985.38;4980477;28;7273;-61
2023/06/23 11:51:49;;;;;;;;;;;;;;;30.21;36.68;94980.59;4966363;28;7038;-61
2023/06/23 11:54:35;;;;;;;;;;;;;;;30.25;36.96;94981.03;4967687;28;8096;-61
2023/06/23 11:57:08;;;;;;;;;;;;;;;30.24;37.05;94977.50;4961878;28;7301;-60
2023/06/23 11:59:54;;;;;;;;;;;;;;;30.22;37.54;94974.50;4984780;28;7039;-61
2023/06/23 12:02:31;;;;;;;;;;;;;;;30.22;36.84;94974.50;4969998;28;7257;-60
2023/06/23 12:05:28;;;;;;;;;;;;;;;30.22;37.06;94977.28;4986693;28;7251;-61
2023/06/23 12:08:14;;;;;;;;;;;;;;;30.22;37.40;94971.72;4907716;29;7310;-61
2023/06/23 12:10:56;;;;;;;;;;;;;;;30.24;36.90;94982.28;4916574;29;9210;-61
2023/06/23 12:13:36;;;;;;;;;;;;;;;30.27;37.18;94976.44;4929160;29;9428;-61
2023/06/23 12:16:11;;;;;;;;;;;;;;;30.27;37.32;94973.66;4914391;29;7089;-61
2023/06/23 12:18:59;;;;;;;;;;;;;;;30.29;36.23;94979.44;4914003;29;7023;-61
2023/06/23 12:21:39;;;;;;;;;;;;;;;30.29;37.12;94971.13;4912109;29;7475;-61
2023/06/23 12:24:23;;;;;;;;;;;;;;;30.31;36.63;94973.38;4945669;28;7574;-61
2023/06/23 12:26:59;;;;;;;;;;;;;;;30.33;36.59;94974.34;4943194;28;8739;-60
2023/06/23 12:29:36;;;;;;;;;;;;;;;30.35;36.73;94979.38;4913240;29;7265;-61
2023/06/23 12:32:31;;;;;;;;;;;;;;;30.35;36.09;94973.81;4913619;29;7065;-61
2023/06/23 12:35:09;;;;;;;;;;;;;;;30.32;36.76;94986.72;4945547;28;7475;-60
2023/06/23 12:37:49;;;;;;;;;;;;;;;30.33;36.31;94987.47;4929491;29;9049;-61
2023/06/23 12:41:07;;;;;;;;;;;;;;;30.35;35.64;94984.91;4913567;29;9087;-60
2023/06/23 12:43:53;;;;;;;;;;;;;;;30.35;36.55;94980.13;4907893;28;7095;-61
2023/06/23 12:46:26;;;;;;;;;;;;;;;30.38;36.11;94981.81;4964060;28;8062;-60
2023/06/23 12:48:55;;;;;;;;;;;;;;;30.38;37.05;94973.50;4966599;28;7247;-60
2023/06/23 12:54:58;;;;;;;;;;;;;;;30.40;36.72;94970.97;4983712;28;7550;-60
2023/06/23 12:57:54;;;;;;;;;;;;;;;30.43;36.53;94969.91;4966208;28;9558;-60
2023/06/23 13:01:08;;;;;;;;;;;;;;;30.44;36.11;94976.97;4981356;28;7300;-60
2023/06/23 13:04:00;;;;;;;;;;;;;;;30.45;36.02;94967.34;4984792;28;7038;-60
2023/06/23 13:06:36;;;;;;;;;;;;;;;30.47;35.95;94964.78;4980677;28;6877;-60
2023/06/23 13:09:11;;;;;;;;;;;;;;;30.45;35.93;94961.03;4970350;28;7084;-60
2023/06/23 13:11:49;;;;;;;;;;;;;;;30.46;35.96;94951.44;4964813;28;9025;-60
2023/06/23 13:14:25;;;;;;;;;;;;;;;30.43;36.41;94956.00;4984906;28;8271;-61
2023/06/23 13:17:10;;;;;;;;;;;;;;;30.43;36.12;94958.78;4983037;28;8741;-60
2023/06/23 13:20:07;;;;;;;;;;;;;;;30.44;35.37;94965.84;4987374;28;9545;-60
2023/06/23 13:23:03;;;;;;;;;;;;;;;30.44;35.59;94959.53;4967033;28;9118;-61
2023/06/23 13:25:40;;;;;;;;;;;;;;;30.47;36.12;94959.22;4948368;28;9384;-61
2023/06/23 13:28:09;;;;;;;;;;;;;;;30.50;35.44;94952.63;4946980;28;7037;-61
2023/06/23 13:30:50;;;;;;;;;;;;;;;30.48;35.57;94951.66;4947899;28;9264;-60
2023/06/23 13:33:28;;;;;;;;;;;;;;;30.49;35.34;94956.66;4932318;28;9499;-61
2023/06/23 13:35:54;;;;;;;;;;;;;;;30.53;35.11;94956.38;4935647;28;7266;-60
2023/06/23 13:38:33;;;;;;;;;;;;;;;30.54;36.09;94963.41;4948613;28;7091;-61
2023/06/23 13:41:02;;;;;;;;;;;;;;;30.56;34.75;94949.00;4947391;28;7118;-60
2023/06/23 13:43:38;;;;;;;;;;;;;;;30.59;36.14;94945.16;4946232;28;8082;-60
2023/06/23 13:46:42;;;;;;;;;;;;;;;30.60;36.03;94952.97;4932711;28;8672;-60
2023/06/23 13:49:20;;;;;;;;;;;;;;;30.59;35.40;94954.25;4945209;28;9000;-60
2023/06/23 13:51:58;;;;;;;;;;;;;;;30.60;35.22;94944.66;4949240;28;9040;-60
2023/06/23 13:54:34;;;;;;;;;;;;;;;30.63;35.38;94948.38;4947277;28;7058;-60
2023/06/23 13:57:10;;;;;;;;;;;;;;;30.63;35.59;94945.59;4943520;28;7210;-61
2023/06/23 13:59:41;;;;;;;;;;;;;;;30.63;35.07;94940.78;4994423;28;7278;-61
2023/06/23 14:02:11;;;;;;;;;;;;;;;30.63;34.60;94942.81;4992704;28;6929;-61
2023/06/23 14:04:37;;;;;;;;;;;;;;;30.58;36.07;94943.69;5027946;28;7024;-61